sensor_id;sensor_type;location;lat;lon;timestamp;pressure;altitude;pressure_sealevel;temperature;humidity
73600;BME280;61877;48.246;9.220;2023-01-28T00:01:48;94426.94;;;-2.14;90.52
73600;BME280;61877;48.246;9.220;2023-01-28T00:04:15;94433.25;;;-2.15;91.24
73600;BME280;61877;48.246;9.220;2023-01-28T00:06:40;94431.41;;;-2.14;90.91
73600;BME280;61877;48.246;9.220;2023-01-28T00:09:06;94426.66;;;-2.17;91.22
73600;BME280;61877;48.246;9.220;2023-01-28T00:11:31;94429.03;;;-2.16;91.68
73600;BME280;61877;48.246;9.220;2023-01-28T00:13:57;94426.16;;;-2.14;91.41
73600;BME280;61877;48.246;9.220;2023-01-28T00:16:22;94424.03;;;-2.17;91.61
73600;BME280;61877;48.246;9.220;2023-01-28T00:18:47;94424.84;;;-2.12;91.23
73600;BME280;61877;48.246;9.220;2023-01-28T00:21:14;94413.28;;;-2.16;91.27
73600;BME280;61877;48.246;9.220;2023-01-28T00:23:41;94414.59;;;-2.13;91.59
73600;BME280;61877;48.246;9.220;2023-01-28T00:26:09;94409.84;;;-2.16;90.98
73600;BME280;61877;48.246;9.220;2023-01-28T00:28:34;94410.16;;;-2.13;91.55
73600;BME280;61877;48.246;9.220;2023-01-28T00:31:05;94398.84;;;-2.13;91.43
73600;BME280;61877;48.246;9.220;2023-01-28T00:33:31;94400.66;;;-2.14;91.61
73600;BME280;61877;48.246;9.220;2023-01-28T00:35:57;94404.84;;;-2.18;90.55
73600;BME280;61877;48.246;9.220;2023-01-28T00:38:24;94408.03;;;-2.16;91.10
73600;BME280;61877;48.246;9.220;2023-01-28T00:40:49;94407.97;;;-2.21;91.09
73600;BME280;61877;48.246;9.220;2023-01-28T00:43:15;94406.38;;;-2.22;91.09
73600;BME280;61877;48.246;9.220;2023-01-28T00:45:40;94404.03;;;-2.18;91.19
73600;BME280;61877;48.246;9.220;2023-01-28T00:48:06;94402.22;;;-2.18;91.39
73600;BME280;61877;48.246;9.220;2023-01-28T00:50:31;94410.09;;;-2.18;91.16
73600;BME280;61877;48.246;9.220;2023-01-28T00:52:56;94412.47;;;-2.16;91.10
73600;BME280;61877;48.246;9.220;2023-01-28T00:55:23;94398.56;;;-2.12;91.25
73600;BME280;61877;48.246;9.220;2023-01-28T00:57:49;94400.19;;;-2.11;90.96
73600;BME280;61877;48.246;9.220;2023-01-28T01:00:15;94406.69;;;-2.18;91.06
73600;BME280;61877;48.246;9.220;2023-01-28T01:02:40;94408.28;;;-2.17;91.20
73600;BME280;61877;48.246;9.220;2023-01-28T01:05:06;94403.28;;;-2.14;90.65
73600;BME280;61877;48.246;9.220;2023-01-28T01:07:32;94399.38;;;-2.11;90.89
73600;BME280;61877;48.246;9.220;2023-01-28T01:09:58;94393.31;;;-2.12;90.68
73600;BME280;61877;48.246;9.220;2023-01-28T01:12:25;94399.94;;;-2.09;90.68
73600;BME280;61877;48.246;9.220;2023-01-28T01:14:50;94402.56;;;-2.09;90.91
73600;BME280;61877;48.246;9.220;2023-01-28T01:17:15;94401.25;;;-2.07;89.85
73600;BME280;61877;48.246;9.220;2023-01-28T01:19:41;94399.66;;;-2.08;90.21
73600;BME280;61877;48.246;9.220;2023-01-28T01:22:06;94405.72;;;-2.07;90.51
73600;BME280;61877;48.246;9.220;2023-01-28T01:24:32;94403.31;;;-2.09;90.30
73600;BME280;61877;48.246;9.220;2023-01-28T01:26:57;94413.56;;;-2.12;90.30
73600;BME280;61877;48.246;9.220;2023-01-28T01:29:24;94409.63;;;-2.10;90.70
73600;BME280;61877;48.246;9.220;2023-01-28T01:31:49;94414.34;;;-2.12;91.02
73600;BME280;61877;48.246;9.220;2023-01-28T01:34:14;94408.34;;;-2.07;90.52
73600;BME280;61877;48.246;9.220;2023-01-28T01:36:40;94407.09;;;-2.00;89.34
73600;BME280;61877;48.246;9.220;2023-01-28T01:39:05;94415.72;;;-2.04;90.33
73600;BME280;61877;48.246;9.220;2023-01-28T01:41:31;94415.94;;;-2.11;90.46
73600;BME280;61877;48.246;9.220;2023-01-28T01:43:58;94414.09;;;-2.10;90.45
73600;BME280;61877;48.246;9.220;2023-01-28T01:46:31;94418.03;;;-2.13;91.01
73600;BME280;61877;48.246;9.220;2023-01-28T01:49:04;94415.94;;;-2.11;91.07
73600;BME280;61877;48.246;9.220;2023-01-28T01:51:32;94419.91;;;-2.08;90.93
73600;BME280;61877;48.246;9.220;2023-01-28T01:53:59;94427.53;;;-2.07;90.83
73600;BME280;61877;48.246;9.220;2023-01-28T01:56:28;94433.03;;;-2.08;90.96
73600;BME280;61877;48.246;9.220;2023-01-28T01:58:57;94435.41;;;-2.07;90.82
73600;BME280;61877;48.246;9.220;2023-01-28T02:01:26;94434.94;;;-1.99;89.71
73600;BME280;61877;48.246;9.220;2023-01-28T02:03:56;94433.88;;;-2.03;90.44
73600;BME280;61877;48.246;9.220;2023-01-28T02:06:25;94430.97;;;-2.06;90.43
73600;BME280;61877;48.246;9.220;2023-01-28T02:08:53;94437.28;;;-2.07;90.55
73600;BME280;61877;48.246;9.220;2023-01-28T02:11:19;94440.38;;;-2.10;91.10
73600;BME280;61877;48.246;9.220;2023-01-28T02:13:48;94433.53;;;-2.11;91.18
73600;BME280;61877;48.246;9.220;2023-01-28T02:16:15;94422.78;;;-2.10;90.88
73600;BME280;61877;48.246;9.220;2023-01-28T02:18:41;94431.75;;;-2.06;91.52
73600;BME280;61877;48.246;9.220;2023-01-28T02:24:22;94435.16;;;-2.05;90.73
73600;BME280;61877;48.246;9.220;2023-01-28T02:27:15;94444.91;;;-2.06;91.02
73600;BME280;61877;48.246;9.220;2023-01-28T02:29:49;94442.53;;;-2.07;90.69
73600;BME280;61877;48.246;9.220;2023-01-28T02:32:24;94441.22;;;-2.05;90.03
73600;BME280;61877;48.246;9.220;2023-01-28T02:34:51;94450.44;;;-2.02;90.25
73600;BME280;61877;48.246;9.220;2023-01-28T02:37:22;94438.53;;;-2.10;90.75
73600;BME280;61877;48.246;9.220;2023-01-28T02:39:53;94432.28;;;-2.04;90.73
73600;BME280;61877;48.246;9.220;2023-01-28T02:42:24;94438.03;;;-2.07;90.80
73600;BME280;61877;48.246;9.220;2023-01-28T02:44:52;94437.06;;;-2.01;90.39
73600;BME280;61877;48.246;9.220;2023-01-28T02:47:18;94439.13;;;-2.03;90.46
73600;BME280;61877;48.246;9.220;2023-01-28T02:49:47;94439.66;;;-2.06;90.60
73600;BME280;61877;48.246;9.220;2023-01-28T02:52:22;94439.66;;;-2.06;90.40
73600;BME280;61877;48.246;9.220;2023-01-28T02:54:54;94440.41;;;-2.05;90.61
73600;BME280;61877;48.246;9.220;2023-01-28T02:57:29;94440.97;;;-2.03;90.26
73600;BME280;61877;48.246;9.220;2023-01-28T03:00:05;94438.63;;;-2.00;90.54
73600;BME280;61877;48.246;9.220;2023-01-28T03:02:36;94442.03;;;-2.04;90.74
73600;BME280;61877;48.246;9.220;2023-01-28T03:05:10;94450.41;;;-2.07;90.82
73600;BME280;61877;48.246;9.220;2023-01-28T03:07:39;94439.66;;;-2.06;90.35
73600;BME280;61877;48.246;9.220;2023-01-28T03:10:07;94446.19;;;-2.08;90.53
73600;BME280;61877;48.246;9.220;2023-01-28T03:12:34;94438.09;;;-2.02;89.96
73600;BME280;61877;48.246;9.220;2023-01-28T03:15:06;94438.09;;;-2.02;90.65
73600;BME280;61877;48.246;9.220;2023-01-28T03:17:36;94438.34;;;-2.03;90.34
73600;BME280;61877;48.246;9.220;2023-01-28T03:20:05;94432.81;;;-2.02;90.78
73600;BME280;61877;48.246;9.220;2023-01-28T03:22:33;94436.75;;;-2.04;90.33
73600;BME280;61877;48.246;9.220;2023-01-28T03:25:01;94441.25;;;-2.00;90.20
73600;BME280;61877;48.246;9.220;2023-01-28T03:27:30;94439.94;;;-2.02;90.17
73600;BME280;61877;48.246;9.220;2023-01-28T03:30:02;94440.72;;;-2.02;90.17
73600;BME280;61877;48.246;9.220;2023-01-28T03:32:29;94441.75;;;-2.03;90.26
73600;BME280;61877;48.246;9.220;2023-01-28T03:34:56;94444.34;;;-2.08;90.41
73600;BME280;61877;48.246;9.220;2023-01-28T03:37:22;94440.47;;;-2.00;89.88
73600;BME280;61877;48.246;9.220;2023-01-28T03:39:48;94448.59;;;-2.02;89.84
73600;BME280;61877;48.246;9.220;2023-01-28T03:42:14;94446.78;;;-2.01;89.96
73600;BME280;61877;48.246;9.220;2023-01-28T03:44:40;94445.97;;;-2.02;90.06
73600;BME280;61877;48.246;9.220;2023-01-28T03:47:05;94452.31;;;-1.98;89.87
73600;BME280;61877;48.246;9.220;2023-01-28T03:49:32;94459.38;;;-2.03;90.32
73600;BME280;61877;48.246;9.220;2023-01-28T03:51:57;94462.84;;;-1.98;89.92
73600;BME280;61877;48.246;9.220;2023-01-28T03:54:23;94459.16;;;-1.97;89.88
73600;BME280;61877;48.246;9.220;2023-01-28T03:56:48;94457.88;;;-1.94;89.62
73600;BME280;61877;48.246;9.220;2023-01-28T03:59:14;94463.13;;;-1.94;89.30
73600;BME280;61877;48.246;9.220;2023-01-28T04:01:39;94461.22;;;-1.99;89.29
73600;BME280;61877;48.246;9.220;2023-01-28T04:04:04;94459.44;;;-1.93;88.95
73600;BME280;61877;48.246;9.220;2023-01-28T04:06:31;94466.28;;;-1.92;89.41
73600;BME280;61877;48.246;9.220;2023-01-28T04:08:56;94458.38;;;-1.92;89.25
73600;BME280;61877;48.246;9.220;2023-01-28T04:11:22;94459.69;;;-1.95;89.37
73600;BME280;61877;48.246;9.220;2023-01-28T04:13:47;94457.63;;;-1.93;89.33
73600;BME280;61877;48.246;9.220;2023-01-28T04:16:14;94458.91;;;-1.95;89.27
73600;BME280;61877;48.246;9.220;2023-01-28T04:18:40;94458.66;;;-1.94;89.22
73600;BME280;61877;48.246;9.220;2023-01-28T04:21:05;94476.53;;;-1.96;89.54
73600;BME280;61877;48.246;9.220;2023-01-28T04:23:32;94473.91;;;-1.96;88.85
73600;BME280;61877;48.246;9.220;2023-01-28T04:25:58;94469.72;;;-1.92;88.71
73600;BME280;61877;48.246;9.220;2023-01-28T04:28:23;94473.44;;;-1.88;88.73
73600;BME280;61877;48.246;9.220;2023-01-28T04:30:48;94473.13;;;-1.91;88.79
73600;BME280;61877;48.246;9.220;2023-01-28T04:33:14;94475.78;;;-1.91;88.87
73600;BME280;61877;48.246;9.220;2023-01-28T04:35:39;94473.41;;;-1.93;89.10
73600;BME280;61877;48.246;9.220;2023-01-28T04:38:05;94472.53;;;-1.98;88.77
73600;BME280;61877;48.246;9.220;2023-01-28T04:40:32;94477.03;;;-1.94;89.82
73600;BME280;61877;48.246;9.220;2023-01-28T04:42:57;94479.38;;;-1.97;89.94
73600;BME280;61877;48.246;9.220;2023-01-28T04:45:23;94486.50;;;-1.98;89.90
73600;BME280;61877;48.246;9.220;2023-01-28T04:47:48;94489.66;;;-1.96;90.05
73600;BME280;61877;48.246;9.220;2023-01-28T04:50:15;94491.00;;;-1.93;89.92
73600;BME280;61877;48.246;9.220;2023-01-28T04:52:41;94488.63;;;-1.95;90.15
73600;BME280;61877;48.246;9.220;2023-01-28T04:55:07;94482.31;;;-1.94;89.53
73600;BME280;61877;48.246;9.220;2023-01-28T04:57:34;94485.69;;;-1.98;89.62
73600;BME280;61877;48.246;9.220;2023-01-28T05:00:00;94485.44;;;-1.97;89.84
73600;BME280;61877;48.246;9.220;2023-01-28T05:02:25;94488.56;;;-2.00;89.93
73600;BME280;61877;48.246;9.220;2023-01-28T05:04:51;94484.41;;;-1.96;89.90
73600;BME280;61877;48.246;9.220;2023-01-28T05:07:16;94490.91;;;-2.03;89.72
73600;BME280;61877;48.246;9.220;2023-01-28T05:09:41;94489.88;;;-2.02;89.36
73600;BME280;61877;48.246;9.220;2023-01-28T05:12:07;94493.81;;;-2.00;89.36
73600;BME280;61877;48.246;9.220;2023-01-28T05:14:33;94489.13;;;-1.98;89.06
73600;BME280;61877;48.246;9.220;2023-01-28T05:16:59;94492.00;;;-1.99;88.29
73600;BME280;61877;48.246;9.220;2023-01-28T05:19:24;94491.78;;;-1.93;88.01
73600;BME280;61877;48.246;9.220;2023-01-28T05:21:50;94490.69;;;-1.97;88.12
73600;BME280;61877;48.246;9.220;2023-01-28T05:24:15;94501.16;;;-2.02;88.34
73600;BME280;61877;48.246;9.220;2023-01-28T05:26:41;94494.94;;;-1.96;88.42
73600;BME280;61877;48.246;9.220;2023-01-28T05:29:06;94498.56;;;-1.97;88.35
73600;BME280;61877;48.246;9.220;2023-01-28T05:31:33;94505.44;;;-1.96;88.74
73600;BME280;61877;48.246;9.220;2023-01-28T05:33:59;94507.56;;;-1.93;89.11
73600;BME280;61877;48.246;9.220;2023-01-28T05:36:24;94505.44;;;-1.96;89.02
73600;BME280;61877;48.246;9.220;2023-01-28T05:38:49;94504.38;;;-1.95;88.66
73600;BME280;61877;48.246;9.220;2023-01-28T05:41:15;94505.66;;;-1.97;89.11
73600;BME280;61877;48.246;9.220;2023-01-28T05:43:40;94515.72;;;-1.94;89.25
73600;BME280;61877;48.246;9.220;2023-01-28T05:46:06;94509.13;;;-1.92;89.29
73600;BME280;61877;48.246;9.220;2023-01-28T05:48:32;94507.56;;;-1.93;89.23
73600;BME280;61877;48.246;9.220;2023-01-28T05:50:58;94508.06;;;-1.96;89.44
73600;BME280;61877;48.246;9.220;2023-01-28T05:53:23;94511.22;;;-1.94;89.42
73600;BME280;61877;48.246;9.220;2023-01-28T05:55:49;94515.75;;;-1.89;88.97
73600;BME280;61877;48.246;9.220;2023-01-28T05:58:15;94507.91;;;-1.84;88.49
73600;BME280;61877;48.246;9.220;2023-01-28T06:00:41;94513.63;;;-1.87;88.85
73600;BME280;61877;48.246;9.220;2023-01-28T06:03:06;94519.97;;;-1.88;89.03
73600;BME280;61877;48.246;9.220;2023-01-28T06:05:33;94520.75;;;-1.88;88.92
73600;BME280;61877;48.246;9.220;2023-01-28T06:07:58;94524.16;;;-1.87;88.30
73600;BME280;61877;48.246;9.220;2023-01-28T06:10:24;94520.25;;;-1.85;88.78
73600;BME280;61877;48.246;9.220;2023-01-28T06:12:49;94524.19;;;-1.82;88.96
73600;BME280;61877;48.246;9.220;2023-01-28T06:15:15;94521.53;;;-1.87;89.44
73600;BME280;61877;48.246;9.220;2023-01-28T06:17:40;94531.81;;;-1.86;89.64
73600;BME280;61877;48.246;9.220;2023-01-28T06:20:06;94529.97;;;-1.85;89.38
73600;BME280;61877;48.246;9.220;2023-01-28T06:22:33;94528.91;;;-1.89;89.12
73600;BME280;61877;48.246;9.220;2023-01-28T06:24:58;94532.28;;;-1.89;89.87
73600;BME280;61877;48.246;9.220;2023-01-28T06:27:24;94534.69;;;-1.87;89.97
73600;BME280;61877;48.246;9.220;2023-01-28T06:29:49;94536.03;;;-1.85;89.17
73600;BME280;61877;48.246;9.220;2023-01-28T06:32:14;94531.28;;;-1.88;89.88
73600;BME280;61877;48.246;9.220;2023-01-28T06:34:40;94539.94;;;-1.87;89.79
73600;BME280;61877;48.246;9.220;2023-01-28T06:37:05;94541.25;;;-1.90;89.24
73600;BME280;61877;48.246;9.220;2023-01-28T06:39:32;94552.56;;;-1.89;90.08
73600;BME280;61877;48.246;9.220;2023-01-28T06:41:57;94550.69;;;-1.89;89.19
73600;BME280;61877;48.246;9.220;2023-01-28T06:44:23;94549.94;;;-1.89;89.50
73600;BME280;61877;48.246;9.220;2023-01-28T06:46:48;94557.06;;;-1.85;88.84
73600;BME280;61877;48.246;9.220;2023-01-28T06:49:14;94557.88;;;-1.84;89.18
73600;BME280;61877;48.246;9.220;2023-01-28T06:51:39;94559.94;;;-1.86;89.31
73600;BME280;61877;48.246;9.220;2023-01-28T06:54:05;94567.88;;;-1.81;89.82
73600;BME280;61877;48.246;9.220;2023-01-28T06:56:33;94563.38;;;-1.86;89.62
73600;BME280;61877;48.246;9.220;2023-01-28T06:58:58;94577.84;;;-1.83;89.75
73600;BME280;61877;48.246;9.220;2023-01-28T07:01:24;94574.72;;;-1.80;89.17
73600;BME280;61877;48.246;9.220;2023-01-28T07:03:49;94569.69;;;-1.82;89.58
73600;BME280;61877;48.246;9.220;2023-01-28T07:06:15;94579.66;;;-1.84;89.63
73600;BME280;61877;48.246;9.220;2023-01-28T07:08:40;94573.88;;;-1.86;89.90
73600;BME280;61877;48.246;9.220;2023-01-28T07:11:06;94574.66;;;-1.85;89.68
73600;BME280;61877;48.246;9.220;2023-01-28T07:13:33;94577.38;;;-1.75;88.97
73600;BME280;61877;48.246;9.220;2023-01-28T07:15:59;94585.03;;;-1.74;89.19
73600;BME280;61877;48.246;9.220;2023-01-28T07:18:25;94583.19;;;-1.73;89.65
73600;BME280;61877;48.246;9.220;2023-01-28T07:20:50;94583.50;;;-1.70;89.19
73600;BME280;61877;48.246;9.220;2023-01-28T07:23:15;94590.88;;;-1.67;89.01
73600;BME280;61877;48.246;9.220;2023-01-28T07:25:41;94592.72;;;-1.67;89.18
73600;BME280;61877;48.246;9.220;2023-01-28T07:28:06;94590.63;;;-1.65;88.78
73600;BME280;61877;48.246;9.220;2023-01-28T07:30:33;94586.94;;;-1.64;88.63
73600;BME280;61877;48.246;9.220;2023-01-28T07:32:59;94591.38;;;-1.70;88.36
73600;BME280;61877;48.246;9.220;2023-01-28T07:35:25;94602.72;;;-1.69;88.75
73600;BME280;61877;48.246;9.220;2023-01-28T07:37:54;94599.31;;;-1.65;88.60
73600;BME280;61877;48.246;9.220;2023-01-28T07:40:20;94596.44;;;-1.63;88.91
73600;BME280;61877;48.246;9.220;2023-01-28T07:42:46;94600.66;;;-1.62;89.08
73600;BME280;61877;48.246;9.220;2023-01-28T07:45:11;94600.41;;;-1.61;89.31
73600;BME280;61877;48.246;9.220;2023-01-28T07:47:38;94596.50;;;-1.58;88.95
73600;BME280;61877;48.246;9.220;2023-01-28T07:50:04;94600.09;;;-1.64;89.05
73600;BME280;61877;48.246;9.220;2023-01-28T07:52:30;94612.78;;;-1.61;88.94
73600;BME280;61877;48.246;9.220;2023-01-28T07:54:55;94610.44;;;-1.58;89.14
73600;BME280;61877;48.246;9.220;2023-01-28T07:57:21;94623.34;;;-1.56;88.95
73600;BME280;61877;48.246;9.220;2023-01-28T07:59:46;94612.06;;;-1.52;88.75
73600;BME280;61877;48.246;9.220;2023-01-28T08:02:11;94612.38;;;-1.48;88.87
73600;BME280;61877;48.246;9.220;2023-01-28T08:04:38;94618.44;;;-1.43;88.48
73600;BME280;61877;48.246;9.220;2023-01-28T08:07:04;94615.81;;;-1.43;88.35
73600;BME280;61877;48.246;9.220;2023-01-28T08:09:29;94620.38;;;-1.33;87.85
73600;BME280;61877;48.246;9.220;2023-01-28T08:11:54;94625.00;;;-1.45;88.13
73600;BME280;61877;48.246;9.220;2023-01-28T08:14:20;94621.31;;;-1.44;87.66
73600;BME280;61877;48.246;9.220;2023-01-28T08:16:45;94623.28;;;-1.35;87.58
73600;BME280;61877;48.246;9.220;2023-01-28T08:19:11;94628.28;;;-1.33;87.07
73600;BME280;61877;48.246;9.220;2023-01-28T08:21:37;94621.72;;;-1.31;87.24
73600;BME280;61877;48.246;9.220;2023-01-28T08:24:03;94630.16;;;-1.28;87.83
73600;BME280;61877;48.246;9.220;2023-01-28T08:26:30;94630.72;;;-1.26;87.51
73600;BME280;61877;48.246;9.220;2023-01-28T08:28:56;94638.94;;;-1.18;86.91
73600;BME280;61877;48.246;9.220;2023-01-28T08:31:21;94643.47;;;-1.08;86.88
73600;BME280;61877;48.246;9.220;2023-01-28T08:33:53;94649.84;;;-0.99;85.84
73600;BME280;61877;48.246;9.220;2023-01-28T08:36:18;94653.34;;;-0.94;86.00
73600;BME280;61877;48.246;9.220;2023-01-28T08:38:45;94633.84;;;-0.98;85.65
73600;BME280;61877;48.246;9.220;2023-01-28T08:41:10;94642.59;;;-0.87;85.28
73600;BME280;61877;48.246;9.220;2023-01-28T08:43:36;94643.72;;;-0.78;85.63
73600;BME280;61877;48.246;9.220;2023-01-28T08:46:04;94648.75;;;-0.72;84.65
73600;BME280;61877;48.246;9.220;2023-01-28T08:48:29;94642.97;;;-0.69;84.55
73600;BME280;61877;48.246;9.220;2023-01-28T08:50:57;94640.41;;;-0.59;85.02
73600;BME280;61877;48.246;9.220;2023-01-28T08:53:23;94644.66;;;-0.53;83.74
73600;BME280;61877;48.246;9.220;2023-01-28T08:55:49;94642.06;;;-0.43;82.90
73600;BME280;61877;48.246;9.220;2023-01-28T08:58:16;94641.88;;;-0.31;83.22
73600;BME280;61877;48.246;9.220;2023-01-28T09:00:43;94655.56;;;-0.34;83.16
73600;BME280;61877;48.246;9.220;2023-01-28T09:03:09;94652.91;;;-0.39;82.71
73600;BME280;61877;48.246;9.220;2023-01-28T09:05:38;94652.84;;;-0.49;82.37
73600;BME280;61877;48.246;9.220;2023-01-28T09:08:05;94650.72;;;-0.52;83.34
73600;BME280;61877;48.246;9.220;2023-01-28T09:10:31;94651.81;;;-0.48;83.04
73600;BME280;61877;48.246;9.220;2023-01-28T09:12:57;94655.47;;;-0.49;83.57
73600;BME280;61877;48.246;9.220;2023-01-28T09:15:23;94658.59;;;-0.57;83.04
73600;BME280;61877;48.246;9.220;2023-01-28T09:17:48;94661.72;;;-0.65;83.23
73600;BME280;61877;48.246;9.220;2023-01-28T09:20:15;94677.50;;;-0.65;84.21
73600;BME280;61877;48.246;9.220;2023-01-28T09:22:41;94668.56;;;-0.64;84.54
73600;BME280;61877;48.246;9.220;2023-01-28T09:25:07;94664.19;;;-0.49;84.10
73600;BME280;61877;48.246;9.220;2023-01-28T09:27:33;94660.84;;;-0.34;83.73
73600;BME280;61877;48.246;9.220;2023-01-28T09:29:59;94666.09;;;-0.34;82.45
73600;BME280;61877;48.246;9.220;2023-01-28T09:32:25;94669.28;;;-0.32;83.61
73600;BME280;61877;48.246;9.220;2023-01-28T09:34:50;94663.22;;;-0.28;82.91
73600;BME280;61877;48.246;9.220;2023-01-28T09:37:16;94665.31;;;-0.35;82.92
73600;BME280;61877;48.246;9.220;2023-01-28T09:39:41;94673.31;;;-0.15;82.02
73600;BME280;61877;48.246;9.220;2023-01-28T09:42:26;94674.69;;;-0.07;82.66
73600;BME280;61877;48.246;9.220;2023-01-28T09:45:02;94662.28;;;-0.07;82.27
73600;BME280;61877;48.246;9.220;2023-01-28T09:47:34;94663.09;;;-0.01;82.04
73600;BME280;61877;48.246;9.220;2023-01-28T09:50:05;94667.38;;;0.15;81.44
73600;BME280;61877;48.246;9.220;2023-01-28T09:52:33;94662.13;;;0.25;80.88
73600;BME280;61877;48.246;9.220;2023-01-28T09:55:02;94663.50;;;0.33;81.11
73600;BME280;61877;48.246;9.220;2023-01-28T09:57:35;94661.41;;;0.45;80.03
73600;BME280;61877;48.246;9.220;2023-01-28T10:00:11;94674.59;;;0.40;80.28
73600;BME280;61877;48.246;9.220;2023-01-28T10:02:49;94677.78;;;0.57;79.27
73600;BME280;61877;48.246;9.220;2023-01-28T10:05:26;94676.47;;;0.44;79.02
73600;BME280;61877;48.246;9.220;2023-01-28T10:08:00;94678.53;;;0.32;80.69
73600;BME280;61877;48.246;9.220;2023-01-28T10:10:34;94681.97;;;0.33;80.46
73600;BME280;61877;48.246;9.220;2023-01-28T10:13:17;94684.59;;;0.33;79.95
73600;BME280;61877;48.246;9.220;2023-01-28T10:15:50;94675.38;;;0.40;79.67
73600;BME280;61877;48.246;9.220;2023-01-28T10:18:23;94672.00;;;0.55;80.41
73600;BME280;61877;48.246;9.220;2023-01-28T10:20:53;94681.22;;;0.47;79.37
73600;BME280;61877;48.246;9.220;2023-01-28T10:23:22;94672.50;;;0.57;79.82
73600;BME280;61877;48.246;9.220;2023-01-28T10:25:49;94677.81;;;0.62;79.48
73600;BME280;61877;48.246;9.220;2023-01-28T10:28:18;94680.06;;;0.18;80.29
73600;BME280;61877;48.246;9.220;2023-01-28T10:30:46;94688.53;;;0.30;80.27
73600;BME280;61877;48.246;9.220;2023-01-28T10:33:17;94688.78;;;0.29;80.56
73600;BME280;61877;48.246;9.220;2023-01-28T10:35:43;94680.09;;;0.23;80.76
73600;BME280;61877;48.246;9.220;2023-01-28T10:38:13;94677.66;;;0.12;81.05
73600;BME280;61877;48.246;9.220;2023-01-28T10:40:41;94685.59;;;0.22;80.90
73600;BME280;61877;48.246;9.220;2023-01-28T10:43:08;94682.41;;;0.10;80.43
73600;BME280;61877;48.246;9.220;2023-01-28T10:45:37;94678.13;;;0.03;80.76
73600;BME280;61877;48.246;9.220;2023-01-28T10:48:07;94681.34;;;0.11;81.08
73600;BME280;61877;48.246;9.220;2023-01-28T10:50:49;94678.41;;;0.02;80.34
73600;BME280;61877;48.246;9.220;2023-01-28T10:53:15;94670.31;;;0.24;80.76
73600;BME280;61877;48.246;9.220;2023-01-28T10:55:48;94667.44;;;0.30;79.97
73600;BME280;61877;48.246;9.220;2023-01-28T10:58:18;94670.09;;;0.45;79.50
73600;BME280;61877;48.246;9.220;2023-01-28T11:00:45;94669.56;;;0.33;80.19
73600;BME280;61877;48.246;9.220;2023-01-28T11:03:16;94665.09;;;0.39;80.36
73600;BME280;61877;48.246;9.220;2023-01-28T11:05:49;94669.53;;;0.23;80.41
73600;BME280;61877;48.246;9.220;2023-01-28T11:08:16;94669.88;;;0.57;79.31
73600;BME280;61877;48.246;9.220;2023-01-28T11:10:42;94663.34;;;0.84;78.85
73600;BME280;61877;48.246;9.220;2023-01-28T11:13:15;94672.06;;;1.10;77.45
73600;BME280;61877;48.246;9.220;2023-01-28T11:15:45;94666.47;;;1.62;74.06
73600;BME280;61877;48.246;9.220;2023-01-28T11:18:17;94668.56;;;1.60;74.29
73600;BME280;61877;48.246;9.220;2023-01-28T11:20:51;94664.25;;;2.04;74.60
73600;BME280;61877;48.246;9.220;2023-01-28T11:23:20;94659.06;;;1.69;73.32
73600;BME280;61877;48.246;9.220;2023-01-28T11:25:46;94663.13;;;2.20;71.26
73600;BME280;61877;48.246;9.220;2023-01-28T11:28:17;94654.41;;;2.68;67.73
73600;BME280;61877;48.246;9.220;2023-01-28T11:30:49;94657.69;;;2.50;70.90
73600;BME280;61877;48.246;9.220;2023-01-28T11:33:17;94656.78;;;2.16;71.13
73600;BME280;61877;48.246;9.220;2023-01-28T11:35:53;94652.03;;;2.08;71.72
73600;BME280;61877;48.246;9.220;2023-01-28T11:38:20;94660.78;;;2.08;71.20
73600;BME280;61877;48.246;9.220;2023-01-28T11:40:49;94664.59;;;2.46;69.54
73600;BME280;61877;48.246;9.220;2023-01-28T11:43:14;94657.63;;;2.60;68.98
73600;BME280;61877;48.246;9.220;2023-01-28T11:45:45;94665.50;;;2.75;68.51
73600;BME280;61877;48.246;9.220;2023-01-28T11:48:23;94667.88;;;3.10;67.38
73600;BME280;61877;48.246;9.220;2023-01-28T11:50:59;94661.28;;;2.69;67.70
73600;BME280;61877;48.246;9.220;2023-01-28T11:56:40;94669.84;;;2.51;69.37
73600;BME280;61877;48.246;9.220;2023-01-28T11:59:27;94672.41;;;2.71;68.26
73600;BME280;61877;48.246;9.220;2023-01-28T12:02:13;94675.81;;;2.77;68.09
73600;BME280;61877;48.246;9.220;2023-01-28T12:04:57;94658.34;;;2.71;69.75
73600;BME280;61877;48.246;9.220;2023-01-28T12:07:37;94663.50;;;2.57;68.43
73600;BME280;61877;48.246;9.220;2023-01-28T12:10:14;94663.34;;;2.77;68.39
73600;BME280;61877;48.246;9.220;2023-01-28T12:12:56;94659.81;;;2.48;69.52
73600;BME280;61877;48.246;9.220;2023-01-28T12:15:49;94664.25;;;1.99;71.69
73600;BME280;61877;48.246;9.220;2023-01-28T12:18:30;94664.63;;;1.57;71.30
73600;BME280;61877;48.246;9.220;2023-01-28T12:21:03;94666.44;;;1.72;73.02
73600;BME280;61877;48.246;9.220;2023-01-28T12:23:48;94661.16;;;1.67;70.50
73600;BME280;61877;48.246;9.220;2023-01-28T12:26:16;94661.44;;;1.65;72.19
73600;BME280;61877;48.246;9.220;2023-01-28T12:28:56;94657.44;;;1.73;71.24
73600;BME280;61877;48.246;9.220;2023-01-28T12:31:50;94660.63;;;1.65;73.07
73600;BME280;61877;48.246;9.220;2023-01-28T12:37:29;94657.91;;;1.95;72.50
73600;BME280;61877;48.246;9.220;2023-01-28T12:40:07;94648.84;;;2.11;71.52
73600;BME280;61877;48.246;9.220;2023-01-28T12:42:40;94648.56;;;2.17;70.49
73600;BME280;61877;48.246;9.220;2023-01-28T12:45:14;94649.28;;;2.33;70.29
73600;BME280;61877;48.246;9.220;2023-01-28T12:47:44;94652.22;;;2.80;67.98
73600;BME280;61877;48.246;9.220;2023-01-28T12:50:15;94648.28;;;3.11;66.10
73600;BME280;61877;48.246;9.220;2023-01-28T12:52:43;94653.59;;;3.11;67.72
73600;BME280;61877;48.246;9.220;2023-01-28T12:55:16;94643.63;;;2.98;66.09
73600;BME280;61877;48.246;9.220;2023-01-28T12:57:42;94646.03;;;2.51;68.03
73600;BME280;61877;48.246;9.220;2023-01-28T13:00:20;94649.59;;;2.26;68.75
73600;BME280;61877;48.246;9.220;2023-01-28T13:02:52;94648.84;;;2.11;69.02
73600;BME280;61877;48.246;9.220;2023-01-28T13:05:24;94654.84;;;1.48;70.61
73600;BME280;61877;48.246;9.220;2023-01-28T13:07:56;94655.16;;;1.21;72.54
73600;BME280;61877;48.246;9.220;2023-01-28T13:10:28;94651.19;;;1.08;73.03
73600;BME280;61877;48.246;9.220;2023-01-28T13:12:55;94655.94;;;1.11;73.42
73600;BME280;61877;48.246;9.220;2023-01-28T13:15:21;94648.28;;;1.10;74.14
73600;BME280;61877;48.246;9.220;2023-01-28T13:17:55;94655.16;;;1.26;74.76